Time;durP1;ratioP1;P1;durP2;ratioP2;P2;SDS_P1;SDS_P2;PMS_P1;PMS_P2;Temp;Humidity;BMP_temperature;BMP_pressure;BME280_temperature;BME280_humidity;BME280_pressure;Samples;Min_cycle;Max_cycle;Signal;HPM_P1;HPM_P2
2022/09/03 00:00:27;;;;;;;;;;;19.50;99.90;;;;;;4590208;19;19936;-25
2022/09/03 00:02:29;;;;;;;;;;;19.50;99.90;;;;;;4588095;19;20356;-26
2022/09/03 00:04:05;;;;;;;;;;;19.60;99.90;;;;;;4589709;19;19914;-25
2022/09/03 00:05:44;;;;;;;;;;;19.50;99.90;;;;;;4589108;19;19920;-25
2022/09/03 00:07:42;;;;;;;;;;;19.50;99.90;;;;;;4589896;19;19919;-25
2022/09/03 00:09:15;;;;;;;;;;;19.50;99.90;;;;;;4589820;19;19911;-25
2022/09/03 00:10:51;;;;;;;;;;;19.60;99.90;;;;;;4589920;19;19918;-25
2022/09/03 00:12:27;;;;;;;;;;;19.60;99.90;;;;;;4589622;19;19915;-25
2022/09/03 00:14:01;;;;;;;;;;;19.60;99.90;;;;;;4589581;19;19932;-27
2022/09/03 00:15:32;;;;;;;;;;;19.60;99.90;;;;;;4589307;19;19917;-25
2022/09/03 00:17:24;;;;;;;;;;;19.60;99.90;;;;;;4589860;19;20449;-25
2022/09/03 00:18:56;;;;;;;;;;;19.60;99.90;;;;;;4589331;19;19922;-25
2022/09/03 00:20:30;;;;;;;;;;;19.60;99.90;;;;;;4589260;19;19919;-25
2022/09/03 00:22:14;;;;;;;;;;;19.60;99.90;;;;;;4589332;19;19939;-25
2022/09/03 00:23:45;;;;;;;;;;;19.60;99.90;;;;;;4589265;19;19933;-24
2022/09/03 00:25:18;;;;;;;;;;;19.60;99.90;;;;;;4589256;19;19915;-27
2022/09/03 00:26:50;;;;;;;;;;;19.60;99.90;;;;;;4588422;19;20012;-25
2022/09/03 00:28:42;;;;;;;;;;;19.60;99.90;;;;;;4589211;19;19915;-25
2022/09/03 00:30:14;;;;;;;;;;;19.60;99.90;;;;;;4588713;19;20335;-25
2022/09/03 00:31:47;;;;;;;;;;;19.60;99.90;;;;;;4589145;19;19922;-25
2022/09/03 00:33:20;;;;;;;;;;;19.60;99.90;;;;;;4588928;19;19915;-27
2022/09/03 00:34:52;;;;;;;;;;;19.60;99.90;;;;;;4589216;19;20326;-25
2022/09/03 00:36:35;;;;;;;;;;;19.60;99.90;;;;;;4588804;19;19929;-25
2022/09/03 00:38:07;;;;;;;;;;;19.60;99.90;;;;;;4589166;19;19918;-25
2022/09/03 00:39:38;;;;;;;;;;;19.60;99.90;;;;;;4589465;19;20416;-25
2022/09/03 00:41:16;;;;;;;;;;;19.60;99.90;;;;;;4588899;19;19919;-25
2022/09/03 00:42:47;;;;;;;;;;;19.60;99.90;;;;;;4589235;19;19918;-26
2022/09/03 00:44:37;;;;;;;;;;;19.60;99.90;;;;;;4589071;19;19922;-26
2022/09/03 00:46:08;;;;;;;;;;;19.60;99.90;;;;;;4588025;19;19918;-27
2022/09/03 00:47:39;;;;;;;;;;;19.70;99.90;;;;;;4588794;19;20333;-26
2022/09/03 00:49:10;;;;;;;;;;;19.60;99.90;;;;;;4588786;19;19915;-26
2022/09/03 00:50:46;;;;;;;;;;;19.70;99.90;;;;;;4589245;19;19978;-26
2022/09/03 00:52:33;;;;;;;;;;;19.60;99.90;;;;;;4588962;19;19914;-25
2022/09/03 00:54:15;;;;;;;;;;;19.70;99.90;;;;;;4589572;19;19945;-26
2022/09/03 00:56:09;;;;;;;;;;;19.70;99.90;;;;;;4588388;19;19935;-25
2022/09/03 00:57:40;;;;;;;;;;;19.70;99.90;;;;;;4587070;19;19926;-25
2022/09/03 00:59:20;;;;;;;;;;;19.70;99.90;;;;;;4588859;19;19919;-25
2022/09/03 01:00:51;;;;;;;;;;;19.70;99.90;;;;;;4589123;19;19915;-26
2022/09/03 01:02:28;;;;;;;;;;;19.70;99.90;;;;;;4588683;19;20006;-26
2022/09/03 01:04:20;;;;;;;;;;;19.70;99.90;;;;;;4588688;19;20325;-25
2022/09/03 01:06:02;;;;;;;;;;;19.70;99.90;;;;;;4587983;19;20371;-24
2022/09/03 01:07:33;;;;;;;;;;;19.70;99.90;;;;;;4590889;19;19914;-27
2022/09/03 01:09:10;;;;;;;;;;;19.70;99.90;;;;;;4591359;19;19915;-24
2022/09/03 01:11:09;;;;;;;;;;;19.70;99.90;;;;;;4591327;19;19911;-25
2022/09/03 01:12:51;;;;;;;;;;;19.70;99.90;;;;;;4588202;19;20018;-25
2022/09/03 01:14:30;;;;;;;;;;;19.70;99.90;;;;;;4588591;19;20265;-25
2022/09/03 01:16:20;;;;;;;;;;;19.70;99.90;;;;;;4588478;19;19927;-25
2022/09/03 01:17:59;;;;;;;;;;;19.70;99.90;;;;;;4588094;19;19923;-25
2022/09/03 01:19:36;;;;;;;;;;;19.70;99.90;;;;;;4588698;19;19986;-25
2022/09/03 01:21:26;;;;;;;;;;;19.80;99.90;;;;;;4588339;19;19915;-25
2022/09/03 01:23:09;;;;;;;;;;;19.70;99.90;;;;;;4589976;19;19930;-26
2022/09/03 01:24:49;;;;;;;;;;;19.70;99.90;;;;;;4589920;19;20029;-27
2022/09/03 01:26:38;;;;;;;;;;;19.80;99.90;;;;;;4588999;19;19919;-25
2022/09/03 01:28:10;;;;;;;;;;;19.70;99.90;;;;;;4589945;19;20325;-25
2022/09/03 01:29:57;;;;;;;;;;;19.70;99.90;;;;;;4589888;19;19933;-24
2022/09/03 01:31:32;;;;;;;;;;;19.70;99.90;;;;;;4589786;19;19927;-26
2022/09/03 01:33:09;;;;;;;;;;;19.70;99.90;;;;;;4589814;19;19919;-26
2022/09/03 01:34:46;;;;;;;;;;;19.70;99.90;;;;;;4589839;19;19918;-27
2022/09/03 01:36:23;;;;;;;;;;;19.70;99.90;;;;;;4589384;19;20273;-25
2022/09/03 01:38:13;;;;;;;;;;;19.70;99.90;;;;;;4589321;19;19998;-25
2022/09/03 01:40:02;;;;;;;;;;;19.70;99.90;;;;;;4589214;19;19932;-24
2022/09/03 01:43:50;;;;;;;;;;;19.70;99.90;;;;;;4590192;19;19938;-24
2022/09/03 01:45:26;;;;;;;;;;;19.70;99.90;;;;;;4590074;19;19934;-26
2022/09/03 01:47:07;;;;;;;;;;;19.70;99.90;;;;;;4590319;19;19955;-25
2022/09/03 01:48:51;;;;;;;;;;;19.70;99.90;;;;;;4590241;19;20308;-25
2022/09/03 01:50:22;;;;;;;;;;;19.70;99.90;;;;;;4591823;19;19937;-26
2022/09/03 01:52:16;;;;;;;;;;;19.70;99.90;;;;;;4591838;19;20286;-25
2022/09/03 01:54:00;;;;;;;;;;;19.70;99.90;;;;;;4589165;19;19971;-25
2022/09/03 01:55:50;;;;;;;;;;;19.70;99.90;;;;;;4592454;19;20348;-25
2022/09/03 01:57:35;;;;;;;;;;;19.70;99.90;;;;;;4591796;19;19919;-25
2022/09/03 01:59:08;;;;;;;;;;;19.70;99.90;;;;;;4592017;19;20268;-25
2022/09/03 02:00:40;;;;;;;;;;;19.70;99.90;;;;;;4591816;19;19923;-26
2022/09/03 02:02:21;;;;;;;;;;;19.70;99.90;;;;;;4590661;19;19919;-27
2022/09/03 02:03:58;;;;;;;;;;;19.70;99.90;;;;;;4591623;19;19942;-25
2022/09/03 02:05:30;;;;;;;;;;;19.70;99.90;;;;;;4591618;19;20258;-25
2022/09/03 02:07:01;;;;;;;;;;;19.70;99.90;;;;;;4591328;19;20260;-25
2022/09/03 02:08:32;;;;;;;;;;;19.70;99.90;;;;;;4589804;19;19919;-26
2022/09/03 02:10:05;;;;;;;;;;;19.70;99.90;;;;;;4590389;19;19919;-27
2022/09/03 02:11:36;;;;;;;;;;;19.70;99.90;;;;;;4589186;19;19915;-26
2022/09/03 02:13:18;;;;;;;;;;;19.70;99.90;;;;;;4588741;19;20394;-26
2022/09/03 02:14:48;;;;;;;;;;;19.70;99.90;;;;;;4589732;19;20360;-26
2022/09/03 02:16:23;;;;;;;;;;;19.80;99.90;;;;;;4589558;19;19922;-25
2022/09/03 02:17:55;;;;;;;;;;;19.80;99.90;;;;;;4588572;19;19919;-25
2022/09/03 02:19:26;;;;;;;;;;;19.80;99.90;;;;;;4591190;19;19923;-27
2022/09/03 02:20:57;;;;;;;;;;;19.80;99.90;;;;;;4591394;19;19993;-25
2022/09/03 02:22:28;;;;;;;;;;;19.80;99.90;;;;;;4591444;19;19919;-25
2022/09/03 02:23:59;;;;;;;;;;;19.80;99.90;;;;;;4590090;19;19918;-25
2022/09/03 02:25:37;;;;;;;;;;;19.80;99.90;;;;;;4591675;19;19911;-25
2022/09/03 02:27:08;;;;;;;;;;;19.80;99.90;;;;;;4591807;19;19923;-26
2022/09/03 02:28:39;;;;;;;;;;;19.80;99.90;;;;;;4593511;19;19922;-25
2022/09/03 02:30:10;;;;;;;;;;;19.80;99.90;;;;;;4596703;19;19938;-25
2022/09/03 02:31:41;;;;;;;;;;;19.80;99.90;;;;;;4596164;19;19911;-25
2022/09/03 02:33:12;;;;;;;;;;;19.80;99.90;;;;;;4595632;19;19911;-24
2022/09/03 02:34:43;;;;;;;;;;;19.80;99.90;;;;;;4596033;19;20277;-25
2022/09/03 02:36:16;;;;;;;;;;;19.80;99.90;;;;;;4595290;19;19946;-25
2022/09/03 02:37:47;;;;;;;;;;;19.80;99.90;;;;;;4594795;19;19927;-25
2022/09/03 02:39:18;;;;;;;;;;;19.80;99.90;;;;;;4594062;19;19919;-25
2022/09/03 02:40:49;;;;;;;;;;;19.80;99.90;;;;;;4594420;19;20229;-25
2022/09/03 02:42:20;;;;;;;;;;;19.80;99.90;;;;;;4592470;19;19926;-25
2022/09/03 02:43:54;;;;;;;;;;;19.80;99.90;;;;;;4593305;19;20331;-25
2022/09/03 02:45:28;;;;;;;;;;;19.80;99.90;;;;;;4596016;19;19922;-26
2022/09/03 02:47:00;;;;;;;;;;;19.80;99.90;;;;;;4596081;19;19914;-25
2022/09/03 02:48:31;;;;;;;;;;;19.80;99.90;;;;;;4595598;19;19918;-25
2022/09/03 02:50:03;;;;;;;;;;;19.80;99.90;;;;;;4595158;19;20003;-25
2022/09/03 02:51:40;;;;;;;;;;;19.80;99.90;;;;;;4595136;19;19942;-26
2022/09/03 02:53:11;;;;;;;;;;;19.80;99.90;;;;;;4594956;19;20268;-25
2022/09/03 02:54:44;;;;;;;;;;;19.80;99.90;;;;;;4594295;19;19966;-28
2022/09/03 02:56:15;;;;;;;;;;;19.80;99.90;;;;;;4593109;19;19914;-25
2022/09/03 02:57:46;;;;;;;;;;;19.80;99.90;;;;;;4591560;19;19933;-27
2022/09/03 02:59:17;;;;;;;;;;;19.80;99.90;;;;;;4593201;19;19970;-25
2022/09/03 03:00:48;;;;;;;;;;;19.80;99.90;;;;;;4595877;19;19922;-25
2022/09/03 03:02:19;;;;;;;;;;;19.80;99.90;;;;;;4595514;19;19942;-26
2022/09/03 03:03:50;;;;;;;;;;;19.80;99.90;;;;;;4595421;19;19918;-25
2022/09/03 03:05:23;;;;;;;;;;;19.80;99.90;;;;;;4594932;19;19915;-25
2022/09/03 03:06:55;;;;;;;;;;;19.80;99.90;;;;;;4593517;19;19925;-25
2022/09/03 03:08:27;;;;;;;;;;;19.80;99.90;;;;;;4594009;19;19918;-25
2022/09/03 03:09:58;;;;;;;;;;;19.80;99.90;;;;;;4592817;19;19915;-25
2022/09/03 03:11:29;;;;;;;;;;;19.80;99.90;;;;;;4593090;19;19925;-25
2022/09/03 03:13:00;;;;;;;;;;;19.80;99.90;;;;;;4592738;19;19922;-25
2022/09/03 03:14:31;;;;;;;;;;;19.80;99.90;;;;;;4593234;19;19929;-25
2022/09/03 03:16:05;;;;;;;;;;;19.80;99.90;;;;;;4596018;19;19919;-25
2022/09/03 03:17:35;;;;;;;;;;;19.80;99.90;;;;;;4594285;19;20001;-27
2022/09/03 03:19:07;;;;;;;;;;;19.80;99.90;;;;;;4594479;19;19918;-25
2022/09/03 03:20:38;;;;;;;;;;;19.80;99.90;;;;;;4594556;19;19971;-26
2022/09/03 03:22:09;;;;;;;;;;;19.80;99.90;;;;;;4594004;19;20256;-26
2022/09/03 03:23:40;;;;;;;;;;;19.80;99.90;;;;;;4592835;19;19914;-24
2022/09/03 03:25:11;;;;;;;;;;;19.80;99.90;;;;;;4591897;19;19923;-25
2022/09/03 03:26:43;;;;;;;;;;;19.80;99.90;;;;;;4594434;19;20293;-25
2022/09/03 03:28:14;;;;;;;;;;;19.80;99.90;;;;;;4594979;19;19923;-25
2022/09/03 03:29:45;;;;;;;;;;;19.80;99.90;;;;;;4593633;19;19917;-26
2022/09/03 03:31:17;;;;;;;;;;;19.80;99.90;;;;;;4593950;19;19954;-25
2022/09/03 03:32:48;;;;;;;;;;;19.80;99.90;;;;;;4594472;19;19953;-27
2022/09/03 03:34:19;;;;;;;;;;;19.80;99.90;;;;;;4593335;19;19914;-25
2022/09/03 03:35:50;;;;;;;;;;;19.80;99.90;;;;;;4592082;19;19917;-26
2022/09/03 03:37:21;;;;;;;;;;;19.80;99.90;;;;;;4592586;19;19975;-25
2022/09/03 03:38:53;;;;;;;;;;;19.80;99.90;;;;;;4592693;19;19998;-27
2022/09/03 03:40:24;;;;;;;;;;;19.80;99.90;;;;;;4595133;19;19915;-25
2022/09/03 03:41:55;;;;;;;;;;;19.80;99.90;;;;;;4593984;19;19935;-25
2022/09/03 03:43:26;;;;;;;;;;;19.80;99.90;;;;;;4594031;19;19956;-25
2022/09/03 03:44:57;;;;;;;;;;;19.80;99.90;;;;;;4594222;19;20304;-25
2022/09/03 03:46:29;;;;;;;;;;;19.80;99.90;;;;;;4592499;19;19922;-25
2022/09/03 03:47:59;;;;;;;;;;;19.70;99.90;;;;;;4593435;19;19929;-27
2022/09/03 03:49:31;;;;;;;;;;;19.80;99.90;;;;;;4592319;19;19948;-25
2022/09/03 03:51:05;;;;;;;;;;;19.80;99.90;;;;;;4591389;19;19914;-25
2022/09/03 03:52:36;;;;;;;;;;;19.80;99.90;;;;;;4591913;19;19915;-25
2022/09/03 03:54:07;;;;;;;;;;;19.70;99.90;;;;;;4592224;19;20368;-26
2022/09/03 03:55:38;;;;;;;;;;;19.80;99.90;;;;;;4595204;19;19921;-24
2022/09/03 03:57:10;;;;;;;;;;;19.70;99.90;;;;;;4593915;19;19915;-24
2022/09/03 03:58:41;;;;;;;;;;;19.80;99.90;;;;;;4594519;19;19922;-25
2022/09/03 04:00:12;;;;;;;;;;;19.80;99.90;;;;;;4593894;19;19911;-25
2022/09/03 04:01:43;;;;;;;;;;;19.80;99.90;;;;;;4593657;19;19926;-25
2022/09/03 04:03:14;;;;;;;;;;;19.80;99.90;;;;;;4592755;19;19919;-28
2022/09/03 04:04:45;;;;;;;;;;;19.80;99.90;;;;;;4592694;19;20347;-25
2022/09/03 04:06:17;;;;;;;;;;;19.80;99.90;;;;;;4590314;19;19955;-24
2022/09/03 04:07:48;;;;;;;;;;;19.70;99.90;;;;;;4590908;19;20268;-27
2022/09/03 04:09:19;;;;;;;;;;;19.80;99.90;;;;;;4594666;19;19923;-27
2022/09/03 04:10:50;;;;;;;;;;;19.70;99.90;;;;;;4594558;19;19943;-25
2022/09/03 04:12:21;;;;;;;;;;;19.80;99.90;;;;;;4594289;19;20004;-27
2022/09/03 04:13:52;;;;;;;;;;;19.80;99.90;;;;;;4593421;19;19923;-25
2022/09/03 04:15:23;;;;;;;;;;;19.80;99.90;;;;;;4593286;19;19926;-27
2022/09/03 04:16:55;;;;;;;;;;;19.80;99.90;;;;;;4591891;19;19921;-25
2022/09/03 04:18:26;;;;;;;;;;;19.80;99.90;;;;;;4592534;19;19919;-26
2022/09/03 04:19:57;;;;;;;;;;;19.80;99.90;;;;;;4592050;19;19931;-25
2022/09/03 04:21:28;;;;;;;;;;;19.80;99.90;;;;;;4591770;19;19933;-25
2022/09/03 04:23:00;;;;;;;;;;;19.80;99.90;;;;;;4592919;19;20263;-26
2022/09/03 04:24:31;;;;;;;;;;;19.80;99.90;;;;;;4593009;19;20324;-28
2022/09/03 04:26:02;;;;;;;;;;;19.80;99.90;;;;;;4592183;19;19915;-27
2022/09/03 04:27:33;;;;;;;;;;;19.80;99.90;;;;;;4591619;19;19919;-26
2022/09/03 04:29:05;;;;;;;;;;;19.80;99.90;;;;;;4592109;19;20407;-25
2022/09/03 04:30:36;;;;;;;;;;;19.70;99.90;;;;;;4590386;19;19957;-27
2022/09/03 04:33:57;;;;;;;;;;;19.80;99.90;;;;;;4591453;19;19922;-25
2022/09/03 04:35:33;;;;;;;;;;;19.80;99.90;;;;;;4591539;19;19934;-26
2022/09/03 04:37:03;;;;;;;;;;;19.80;99.90;;;;;;4591561;19;19915;-26
2022/09/03 04:38:35;;;;;;;;;;;19.80;99.90;;;;;;4592734;19;20271;-25
2022/09/03 04:40:07;;;;;;;;;;;19.80;99.90;;;;;;4593206;19;19922;-27
2022/09/03 04:41:37;;;;;;;;;;;19.80;99.90;;;;;;4593057;19;19915;-24
2022/09/03 04:43:08;;;;;;;;;;;19.80;99.90;;;;;;4592538;19;19926;-26
2022/09/03 04:44:40;;;;;;;;;;;19.80;99.90;;;;;;4591286;19;19926;-25
2022/09/03 04:46:11;;;;;;;;;;;19.80;99.90;;;;;;4590539;19;19935;-24
2022/09/03 04:47:45;;;;;;;;;;;19.80;99.90;;;;;;4590489;19;19917;-25
2022/09/03 04:49:16;;;;;;;;;;;19.80;99.90;;;;;;4591315;19;19926;-25
2022/09/03 04:50:47;;;;;;;;;;;19.80;99.90;;;;;;4591252;19;19914;-25
2022/09/03 04:52:18;;;;;;;;;;;19.80;99.90;;;;;;4593660;19;19977;-25
2022/09/03 04:53:53;;;;;;;;;;;19.80;99.90;;;;;;4593726;19;20367;-25
2022/09/03 04:55:24;;;;;;;;;;;19.80;99.90;;;;;;4591962;19;19974;-27
2022/09/03 04:56:55;;;;;;;;;;;19.80;99.90;;;;;;4592138;19;19914;-25
2022/09/03 04:58:26;;;;;;;;;;;19.80;99.90;;;;;;4592375;19;19919;-27
2022/09/03 04:59:57;;;;;;;;;;;19.80;99.90;;;;;;4592283;19;19978;-24
2022/09/03 05:01:29;;;;;;;;;;;19.80;99.90;;;;;;4591576;19;19922;-26
2022/09/03 05:03:00;;;;;;;;;;;19.80;99.90;;;;;;4590973;19;19919;-25
2022/09/03 05:04:31;;;;;;;;;;;19.90;99.90;;;;;;4590966;19;19926;-25
2022/09/03 05:06:02;;;;;;;;;;;19.80;99.90;;;;;;4590081;19;20256;-26
2022/09/03 05:07:37;;;;;;;;;;;19.80;99.90;;;;;;4593343;19;19930;-26
2022/09/03 05:09:08;;;;;;;;;;;19.90;99.90;;;;;;4593278;19;19923;-25
2022/09/03 05:10:39;;;;;;;;;;;19.90;99.90;;;;;;4591856;19;19931;-25
2022/09/03 05:12:10;;;;;;;;;;;19.90;99.90;;;;;;4591303;19;20368;-25
2022/09/03 05:13:41;;;;;;;;;;;19.90;99.90;;;;;;4591636;19;19951;-25
2022/09/03 05:15:13;;;;;;;;;;;19.90;99.90;;;;;;4591788;19;20254;-25
2022/09/03 05:16:44;;;;;;;;;;;19.90;99.90;;;;;;4591866;19;19971;-24
2022/09/03 05:18:15;;;;;;;;;;;19.90;99.90;;;;;;4589745;19;19942;-24
2022/09/03 05:19:46;;;;;;;;;;;19.90;99.90;;;;;;4590219;19;19919;-24
2022/09/03 05:21:17;;;;;;;;;;;19.90;99.90;;;;;;4590852;19;19919;-24
2022/09/03 05:22:48;;;;;;;;;;;19.90;99.90;;;;;;4593255;19;19919;-25
2022/09/03 05:24:19;;;;;;;;;;;19.90;99.90;;;;;;4591495;19;19927;-26
2022/09/03 05:25:56;;;;;;;;;;;19.90;99.90;;;;;;4590779;19;20232;-25
2022/09/03 05:27:27;;;;;;;;;;;20.00;99.90;;;;;;4589214;19;20348;-25
2022/09/03 05:28:59;;;;;;;;;;;20.00;99.90;;;;;;4591878;19;19914;-24
2022/09/03 05:30:30;;;;;;;;;;;20.00;99.90;;;;;;4591425;19;20244;-24
2022/09/03 05:32:02;;;;;;;;;;;20.00;99.90;;;;;;4592010;19;19966;-26
2022/09/03 05:33:34;;;;;;;;;;;20.00;99.90;;;;;;4592759;19;19910;-25
2022/09/03 05:35:06;;;;;;;;;;;20.00;99.90;;;;;;4591358;19;20274;-25
2022/09/03 05:36:37;;;;;;;;;;;20.00;99.90;;;;;;4591650;19;19914;-23
2022/09/03 05:38:18;;;;;;;;;;;20.00;99.90;;;;;;4592042;19;19971;-25
2022/09/03 05:39:50;;;;;;;;;;;20.00;99.90;;;;;;4592137;19;19919;-26
2022/09/03 05:41:21;;;;;;;;;;;20.00;99.90;;;;;;4591267;19;19919;-25
2022/09/03 05:42:57;;;;;;;;;;;20.00;99.90;;;;;;4590942;19;19919;-24
2022/09/03 05:44:28;;;;;;;;;;;20.00;99.90;;;;;;4590739;19;19930;-26
2022/09/03 05:45:59;;;;;;;;;;;20.00;99.90;;;;;;4592155;19;19914;-24
2022/09/03 05:47:30;;;;;;;;;;;20.10;99.90;;;;;;4592136;19;20365;-23
2022/09/03 05:49:02;;;;;;;;;;;20.10;99.90;;;;;;4591888;19;20253;-23
2022/09/03 05:50:34;;;;;;;;;;;20.00;99.90;;;;;;4591331;19;19925;-24
2022/09/03 05:52:05;;;;;;;;;;;20.10;99.90;;;;;;4592136;19;20324;-24
2022/09/03 05:53:37;;;;;;;;;;;20.10;99.90;;;;;;4591843;19;19926;-25
2022/09/03 05:55:08;;;;;;;;;;;20.10;99.90;;;;;;4591745;19;19919;-25
2022/09/03 05:56:39;;;;;;;;;;;20.10;99.90;;;;;;4591489;19;20257;-27
2022/09/03 05:58:10;;;;;;;;;;;20.10;99.90;;;;;;4589925;19;19945;-25
2022/09/03 05:59:41;;;;;;;;;;;20.10;99.90;;;;;;4591644;19;19985;-25
2022/09/03 06:01:19;;;;;;;;;;;20.10;99.90;;;;;;4596317;19;20339;-27
2022/09/03 06:02:51;;;;;;;;;;;20.10;99.90;;;;;;4596952;19;19922;-25
2022/09/03 06:04:22;;;;;;;;;;;20.10;99.90;;;;;;4595257;19;19942;-24
2022/09/03 06:05:53;;;;;;;;;;;20.10;99.90;;;;;;4595937;19;19923;-26
2022/09/03 06:07:26;;;;;;;;;;;20.00;99.90;;;;;;4596942;19;20532;-25
2022/09/03 06:08:57;;;;;;;;;;;20.10;99.90;;;;;;4596755;19;19914;-24
2022/09/03 06:10:29;;;;;;;;;;;20.00;99.90;;;;;;4594253;19;19929;-25
2022/09/03 06:12:00;;;;;;;;;;;20.10;99.90;;;;;;4594904;19;19926;-23
2022/09/03 06:13:32;;;;;;;;;;;20.10;99.90;;;;;;4594928;19;19938;-24
2022/09/03 06:15:04;;;;;;;;;;;20.10;99.90;;;;;;4594823;19;19914;-25
2022/09/03 06:16:37;;;;;;;;;;;20.20;99.90;;;;;;4595738;19;20363;-25
2022/09/03 06:18:09;;;;;;;;;;;20.10;99.90;;;;;;4595307;19;20623;-24
2022/09/03 06:19:41;;;;;;;;;;;20.10;99.90;;;;;;4595770;19;19919;-22
2022/09/03 06:21:13;;;;;;;;;;;20.10;99.90;;;;;;4596852;19;19939;-24
2022/09/03 06:22:51;;;;;;;;;;;20.10;99.90;;;;;;4594861;19;19923;-23
2022/09/03 06:24:38;;;;;;;;;;;20.10;99.90;;;;;;4593832;19;19930;-23
2022/09/03 06:26:21;;;;;;;;;;;20.10;99.90;;;;;;4594389;19;19918;-23
2022/09/03 06:28:01;;;;;;;;;;;20.20;99.90;;;;;;4596105;19;20324;-24
2022/09/03 06:29:45;;;;;;;;;;;20.20;99.90;;;;;;4595534;19;19926;-25
2022/09/03 06:31:19;;;;;;;;;;;20.20;99.90;;;;;;4594030;19;19911;-24
2022/09/03 06:32:59;;;;;;;;;;;20.20;99.90;;;;;;4595046;19;20230;-24
2022/09/03 06:34:38;;;;;;;;;;;20.20;99.90;;;;;;4595285;19;19926;-23
2022/09/03 06:36:17;;;;;;;;;;;20.20;99.90;;;;;;4595642;19;19922;-22
2022/09/03 06:37:52;;;;;;;;;;;20.20;99.90;;;;;;4595945;19;20325;-23
2022/09/03 06:39:51;;;;;;;;;;;20.20;99.90;;;;;;4594531;19;19915;-23
2022/09/03 06:41:50;;;;;;;;;;;20.20;99.90;;;;;;4591497;19;20256;-23
2022/09/03 06:43:29;;;;;;;;;;;20.20;99.90;;;;;;4593912;19;19923;-27
2022/09/03 06:45:01;;;;;;;;;;;20.20;99.90;;;;;;4593713;19;20462;-24
2022/09/03 06:46:33;;;;;;;;;;;20.30;99.90;;;;;;4592303;19;19919;-28
2022/09/03 06:48:05;;;;;;;;;;;20.30;99.90;;;;;;4592544;19;19934;-25
2022/09/03 06:49:37;;;;;;;;;;;20.30;99.90;;;;;;4592215;19;19922;-26
2022/09/03 06:51:15;;;;;;;;;;;20.30;99.90;;;;;;4592078;19;19980;-25
2022/09/03 06:52:53;;;;;;;;;;;20.30;99.90;;;;;;4592508;19;19923;-24
2022/09/03 06:54:25;;;;;;;;;;;20.30;99.90;;;;;;4591735;19;19915;-25
2022/09/03 06:55:56;;;;;;;;;;;20.30;99.90;;;;;;4591248;19;19928;-23
2022/09/03 06:57:28;;;;;;;;;;;20.30;99.90;;;;;;4590255;19;20370;-25
2022/09/03 06:59:08;;;;;;;;;;;20.30;99.90;;;;;;4594180;19;19911;-25
2022/09/03 07:00:45;;;;;;;;;;;20.30;99.90;;;;;;4594043;19;19931;-26
2022/09/03 07:02:17;;;;;;;;;;;20.40;99.90;;;;;;4593987;19;19918;-24
2022/09/03 07:03:51;;;;;;;;;;;20.40;99.90;;;;;;4593711;19;19927;-25
2022/09/03 07:05:24;;;;;;;;;;;20.40;99.90;;;;;;4593272;19;19914;-23
2022/09/03 07:06:55;;;;;;;;;;;20.40;99.90;;;;;;4593270;19;20036;-25
2022/09/03 07:08:26;;;;;;;;;;;20.40;99.90;;;;;;4592327;19;19918;-24
2022/09/03 07:09:57;;;;;;;;;;;20.40;99.90;;;;;;4592146;19;20256;-24
2022/09/03 07:11:29;;;;;;;;;;;20.50;99.90;;;;;;4590897;19;19910;-24
2022/09/03 07:13:00;;;;;;;;;;;20.40;99.90;;;;;;4591352;19;19918;-25
2022/09/03 07:14:32;;;;;;;;;;;20.50;99.90;;;;;;4591143;19;19978;-24
2022/09/03 07:16:04;;;;;;;;;;;20.50;99.90;;;;;;4591796;19;19934;-25
2022/09/03 07:17:35;;;;;;;;;;;20.50;99.90;;;;;;4593668;19;19955;-24
2022/09/03 07:19:08;;;;;;;;;;;20.50;99.90;;;;;;4592879;19;19938;-23
2022/09/03 07:20:39;;;;;;;;;;;20.50;99.90;;;;;;4592966;19;19978;-23
2022/09/03 07:22:11;;;;;;;;;;;20.50;99.90;;;;;;4592138;19;19986;-24
2022/09/03 07:23:42;;;;;;;;;;;20.50;99.90;;;;;;4590893;19;19919;-26
2022/09/03 07:25:14;;;;;;;;;;;20.60;99.90;;;;;;4590543;19;20434;-25
2022/09/03 07:26:45;;;;;;;;;;;20.50;99.90;;;;;;4591663;19;19930;-24
2022/09/03 07:28:16;;;;;;;;;;;20.60;99.90;;;;;;4593131;19;19922;-24
2022/09/03 07:29:47;;;;;;;;;;;20.50;99.90;;;;;;4592155;19;19970;-25
2022/09/03 07:31:21;;;;;;;;;;;20.50;99.90;;;;;;4592118;19;19914;-25
2022/09/03 07:32:53;;;;;;;;;;;20.50;99.90;;;;;;4591644;19;19927;-25
2022/09/03 07:34:27;;;;;;;;;;;20.50;99.90;;;;;;4591619;19;19943;-25
2022/09/03 07:36:01;;;;;;;;;;;20.50;99.90;;;;;;4591187;19;19920;-24
2022/09/03 07:37:32;;;;;;;;;;;20.50;99.90;;;;;;4590963;19;19933;-25
2022/09/03 07:39:03;;;;;;;;;;;20.60;99.90;;;;;;4590382;19;19922;-27
2022/09/03 07:40:34;;;;;;;;;;;20.60;99.90;;;;;;4590529;19;20233;-31
2022/09/03 07:42:09;;;;;;;;;;;20.60;99.90;;;;;;4592960;19;19919;-25
2022/09/03 07:43:45;;;;;;;;;;;20.60;99.90;;;;;;4592861;19;19921;-27
2022/09/03 07:45:16;;;;;;;;;;;20.50;99.90;;;;;;4592879;19;20009;-25
2022/09/03 07:46:49;;;;;;;;;;;20.60;99.90;;;;;;4591309;19;19978;-25
2022/09/03 07:48:20;;;;;;;;;;;20.60;99.90;;;;;;4591865;19;19919;-25
2022/09/03 07:49:53;;;;;;;;;;;20.60;99.90;;;;;;4591563;19;20016;-27
2022/09/03 07:51:27;;;;;;;;;;;20.60;99.90;;;;;;4591391;19;19926;-27
2022/09/03 07:52:58;;;;;;;;;;;20.60;99.90;;;;;;4591335;19;19915;-24
2022/09/03 07:54:30;;;;;;;;;;;20.60;99.90;;;;;;4590371;19;19978;-25
2022/09/03 07:56:04;;;;;;;;;;;20.60;99.90;;;;;;4590050;19;20252;-25
2022/09/03 07:57:36;;;;;;;;;;;20.60;99.90;;;;;;4588610;19;19918;-25
2022/09/03 07:59:07;;;;;;;;;;;20.60;99.90;;;;;;4591562;19;20352;-27
2022/09/03 08:00:38;;;;;;;;;;;20.60;99.90;;;;;;4590932;19;19918;-25
2022/09/03 08:02:10;;;;;;;;;;;20.60;99.90;;;;;;4590684;19;19914;-25
2022/09/03 08:03:42;;;;;;;;;;;20.60;99.90;;;;;;4590349;19;19994;-25
2022/09/03 08:05:13;;;;;;;;;;;20.60;99.90;;;;;;4590064;19;19922;-25
2022/09/03 08:06:44;;;;;;;;;;;20.60;99.90;;;;;;4588440;19;19911;-26
2022/09/03 08:08:16;;;;;;;;;;;20.60;99.90;;;;;;4589441;19;19919;-25
2022/09/03 08:09:49;;;;;;;;;;;20.60;99.90;;;;;;4589314;19;19927;-28
2022/09/03 08:11:20;;;;;;;;;;;20.60;99.90;;;;;;4588479;19;20268;-26
2022/09/03 08:12:52;;;;;;;;;;;20.60;99.90;;;;;;4588622;19;20391;-23
2022/09/03 08:14:23;;;;;;;;;;;20.60;99.90;;;;;;4590809;19;19922;-27
2022/09/03 08:15:55;;;;;;;;;;;20.60;99.90;;;;;;4590459;19;19922;-26
2022/09/03 08:17:26;;;;;;;;;;;20.60;99.90;;;;;;4590817;19;20379;-24
2022/09/03 08:19:00;;;;;;;;;;;20.60;99.90;;;;;;4591517;19;19907;-25
2022/09/03 08:20:31;;;;;;;;;;;20.60;99.90;;;;;;4591676;19;19915;-25
2022/09/03 08:22:14;;;;;;;;;;;20.70;99.90;;;;;;4591639;19;19974;-26
2022/09/03 08:24:07;;;;;;;;;;;20.60;99.90;;;;;;4588997;19;20337;-24
2022/09/03 08:25:48;;;;;;;;;;;20.60;99.90;;;;;;4588914;19;19915;-24
2022/09/03 08:27:34;;;;;;;;;;;20.70;99.90;;;;;;4587524;19;19918;-25
2022/09/03 08:29:08;;;;;;;;;;;20.70;99.90;;;;;;4589764;19;19934;-25
2022/09/03 08:30:39;;;;;;;;;;;20.70;99.90;;;;;;4590069;19;19917;-25
2022/09/03 08:32:10;;;;;;;;;;;20.80;99.90;;;;;;4588883;19;19921;-26
2022/09/03 08:33:51;;;;;;;;;;;20.70;99.90;;;;;;4592107;19;19935;-26
2022/09/03 08:35:22;;;;;;;;;;;20.70;99.90;;;;;;4592660;19;19921;-27
2022/09/03 08:36:53;;;;;;;;;;;20.80;99.90;;;;;;4590954;19;19919;-25
2022/09/03 08:38:24;;;;;;;;;;;20.70;99.90;;;;;;4591349;19;19946;-26
2022/09/03 08:39:55;;;;;;;;;;;20.70;99.90;;;;;;4591120;19;19915;-25
2022/09/03 08:41:46;;;;;;;;;;;20.70;99.90;;;;;;4590080;19;20384;-25
2022/09/03 08:43:18;;;;;;;;;;;20.70;99.90;;;;;;4591863;19;19914;-25
2022/09/03 08:44:49;;;;;;;;;;;20.80;99.90;;;;;;4589652;19;20255;-26
2022/09/03 08:46:20;;;;;;;;;;;20.80;99.90;;;;;;4588867;19;19921;-25
2022/09/03 08:48:00;;;;;;;;;;;20.80;99.90;;;;;;4590073;19;20274;-24
2022/09/03 08:49:34;;;;;;;;;;;20.80;99.90;;;;;;4590321;19;19922;-24
2022/09/03 08:51:06;;;;;;;;;;;20.80;99.90;;;;;;4589699;19;19915;-27
2022/09/03 08:52:40;;;;;;;;;;;20.80;99.90;;;;;;4589714;19;19914;-25
2022/09/03 08:54:11;;;;;;;;;;;20.90;99.90;;;;;;4592563;19;19969;-24
2022/09/03 08:56:11;;;;;;;;;;;20.90;99.90;;;;;;4590619;19;19914;-27
2022/09/03 08:57:44;;;;;;;;;;;20.90;99.90;;;;;;4439981;19;2916719;-25
2022/09/03 08:59:16;;;;;;;;;;;20.80;99.90;;;;;;4592882;19;19926;-25
2022/09/03 09:01:05;;;;;;;;;;;20.80;99.90;;;;;;4592573;19;19926;-27
2022/09/03 09:02:53;;;;;;;;;;;20.80;99.90;;;;;;4591538;19;19914;-25
2022/09/03 09:04:40;;;;;;;;;;;20.80;99.90;;;;;;4590451;19;19915;-25
2022/09/03 09:06:27;;;;;;;;;;;20.80;99.90;;;;;;4590473;19;19914;-27
2022/09/03 09:08:01;;;;;;;;;;;20.80;99.90;;;;;;4591162;19;19918;-24
2022/09/03 09:09:48;;;;;;;;;;;20.80;99.90;;;;;;4590575;19;19976;-24
2022/09/03 09:11:19;;;;;;;;;;;20.80;99.90;;;;;;4590562;19;20021;-25
2022/09/03 09:12:50;;;;;;;;;;;20.80;99.90;;;;;;4590143;19;19923;-24